createdAt,value
2023-04-05T00:00:47.752Z,98822.44
2023-04-05T00:03:15.245Z,98822.78
2023-04-05T00:05:42.693Z,98822.06
2023-04-05T00:08:13.304Z,98824.19
2023-04-05T00:10:41.060Z,98822.66
2023-04-05T00:13:09.264Z,98813.66
2023-04-05T00:15:36.648Z,98822.50
2023-04-05T00:18:04.139Z,98818.22
2023-04-05T00:20:31.502Z,98812.25
2023-04-05T00:22:59.151Z,98806.44
2023-04-05T00:25:26.710Z,98813.66
2023-04-05T00:27:54.078Z,98803.53
2023-04-05T00:30:21.477Z,98796.91
2023-04-05T00:32:52.542Z,98797.06
2023-04-05T00:35:20.860Z,98792.66
2023-04-05T00:37:48.244Z,98792.25
2023-04-05T00:40:15.779Z,98792.53
2023-04-05T00:42:43.181Z,98781.31
2023-04-05T00:45:10.903Z,98784.34
2023-04-05T00:47:38.288Z,98781.34
2023-04-05T00:50:07.293Z,98780.09
2023-04-05T00:52:35.287Z,98778.16
2023-04-05T00:55:02.931Z,98774.28
2023-04-05T00:57:30.364Z,98773.47
2023-04-05T01:00:00.088Z,98765.28
2023-04-05T01:02:39.261Z,98765.81
2023-04-05T01:05:55.337Z,98763.78
2023-04-05T01:08:40.782Z,98765.97
2023-04-05T01:11:09.350Z,98762.09
2023-04-05T01:13:36.547Z,98759.78
2023-04-05T01:16:04.605Z,98758.38
2023-04-05T01:18:32.990Z,98755.09
2023-04-05T01:21:20.832Z,98753.28
2023-04-05T01:24:38.637Z,98745.31
2023-04-05T01:27:35.612Z,98751.44
2023-04-05T01:30:17.892Z,98743.03
2023-04-05T01:33:02.911Z,98734.53
2023-04-05T01:36:04.168Z,98733.00
2023-04-05T01:38:33.624Z,98724.03
2023-04-05T01:41:01.171Z,98727.56
2023-04-05T01:43:28.882Z,98725.94
2023-04-05T01:45:56.266Z,98727.09
2023-04-05T01:48:23.602Z,98735.00
2023-04-05T01:50:50.974Z,98727.94
2023-04-05T01:53:19.209Z,98735.59
2023-04-05T01:55:46.711Z,98727.72
2023-04-05T01:58:14.102Z,98728.72
2023-04-05T02:00:41.657Z,98729.94
2023-04-05T02:03:09.303Z,98729.25
2023-04-05T02:05:36.751Z,98723.59
2023-04-05T02:08:04.084Z,98728.97
2023-04-05T02:10:31.406Z,98730.38
2023-04-05T02:12:58.782Z,98732.84
2023-04-05T02:15:26.199Z,98721.69
2023-04-05T02:17:54.145Z,98726.34
2023-04-05T02:20:21.936Z,98725.66
2023-04-05T02:22:49.350Z,98727.16
2023-04-05T02:25:16.678Z,98724.16
2023-04-05T02:27:43.696Z,98727.47
2023-04-05T02:30:13.632Z,98731.34
2023-04-05T02:32:42.741Z,98718.75
2023-04-05T02:35:10.683Z,98719.88
2023-04-05T02:37:38.753Z,98712.41
2023-04-05T02:40:09.068Z,98716.00
2023-04-05T02:42:38.780Z,98713.25
2023-04-05T02:45:06.696Z,98708.69
2023-04-05T02:47:34.379Z,98710.63
2023-04-05T02:50:02.470Z,98707.84
2023-04-05T02:52:34.290Z,98708.41
2023-04-05T02:55:01.657Z,98709.66
2023-04-05T02:57:31.819Z,98713.09
2023-04-05T03:00:08.636Z,98707.03
2023-04-05T03:02:37.681Z,98708.56
2023-04-05T03:05:07.714Z,98699.31
2023-04-05T03:07:36.513Z,98694.88
2023-04-05T03:10:08.125Z,98700.53
2023-04-05T03:12:37.871Z,98699.97
2023-04-05T03:15:06.794Z,98702.59
2023-04-05T03:17:39.275Z,98700.69
2023-04-05T03:20:08.941Z,98701.94
2023-04-05T03:22:36.805Z,98696.66
2023-04-05T03:25:05.086Z,98699.28
2023-04-05T03:27:33.877Z,98696.13
2023-04-05T03:30:13.359Z,98693.78
2023-04-05T03:32:46.902Z,98695.16
2023-04-05T03:35:25.018Z,98700.81
2023-04-05T03:37:52.460Z,98695.72
2023-04-05T03:40:19.560Z,98697.91
2023-04-05T03:42:47.896Z,98693.22
2023-04-05T03:45:17.128Z,98689.09
2023-04-05T03:47:47.353Z,98696.28
2023-04-05T03:50:14.918Z,98693.50
2023-04-05T03:52:42.418Z,98696.81
2023-04-05T03:55:10.142Z,98693.25
2023-04-05T03:57:38.941Z,98692.13
2023-04-05T04:00:19.914Z,98699.03
2023-04-05T04:03:02.643Z,98695.16
2023-04-05T04:05:31.249Z,98696.97
2023-04-05T04:07:59.525Z,98701.53
2023-04-05T04:10:26.911Z,98709.22
2023-04-05T04:12:58.023Z,98706.59
2023-04-05T04:15:30.155Z,98708.13
2023-04-05T04:18:16.036Z,98705.22
2023-04-05T04:21:10.732Z,98700.53
2023-04-05T04:24:00.895Z,98705.78
2023-04-05T04:27:03.580Z,98706.06
2023-04-05T04:29:49.716Z,98720.00
2023-04-05T04:32:55.896Z,98706.19
2023-04-05T04:35:42.478Z,98716.38
2023-04-05T04:38:18.731Z,98707.72
2023-04-05T04:41:14.349Z,98707.88
2023-04-05T04:43:50.649Z,98706.88
2023-04-05T04:46:43.474Z,98703.56
2023-04-05T04:49:17.195Z,98704.09
2023-04-05T04:51:48.937Z,98707.53
2023-04-05T04:54:20.952Z,98706.72
2023-04-05T04:56:48.535Z,98711.13
2023-04-05T04:59:16.195Z,98705.47
2023-04-05T05:01:45.809Z,98703.41
2023-04-05T05:04:13.252Z,98703.09
2023-04-05T05:06:42.065Z,98703.97
2023-04-05T05:09:09.420Z,98702.84
2023-04-05T05:11:47.607Z,98699.78
2023-04-05T05:14:14.994Z,98704.34
2023-04-05T05:16:42.434Z,98718.00
2023-04-05T05:19:09.801Z,98717.47
2023-04-05T05:21:53.837Z,98714.69
2023-04-05T05:24:22.005Z,98712.47
2023-04-05T05:26:49.349Z,98710.03
2023-04-05T05:29:17.987Z,98712.47
2023-04-05T05:31:46.590Z,98718.81
2023-04-05T05:34:13.907Z,98718.81
2023-04-05T05:36:47.871Z,98716.91
2023-04-05T05:39:15.971Z,98714.72
2023-04-05T05:41:44.049Z,98719.94
2023-04-05T05:44:13.019Z,98713.47
2023-04-05T05:46:40.437Z,98719.81
2023-04-05T05:49:07.761Z,98720.50
2023-04-05T05:51:35.974Z,98720.50
2023-04-05T05:54:03.139Z,98716.97
2023-04-05T05:56:30.517Z,98715.00
2023-04-05T05:58:59.366Z,98718.72
2023-04-05T06:01:28.009Z,98722.72
2023-04-05T06:03:55.655Z,98718.31
2023-04-05T06:06:23.532Z,98717.78
2023-04-05T06:08:51.936Z,98713.06
2023-04-05T06:11:20.058Z,98719.94
2023-04-05T06:13:47.526Z,98724.13
2023-04-05T06:16:14.809Z,98717.91
2023-04-05T06:18:42.454Z,98716.97
2023-04-05T06:21:09.785Z,98714.75
2023-04-05T06:23:37.281Z,98717.91
2023-04-05T06:26:04.591Z,98720.53
2023-04-05T06:28:32.074Z,98726.88
2023-04-05T06:30:59.778Z,98721.34
2023-04-05T06:33:27.511Z,98722.75
2023-04-05T06:35:55.308Z,98728.81
2023-04-05T06:38:22.645Z,98718.47
2023-04-05T06:40:50.101Z,98716.50
2023-04-05T06:43:17.421Z,98716.78
2023-04-05T06:45:44.726Z,98724.78
2023-04-05T06:48:11.969Z,98724.38
2023-04-05T06:50:40.936Z,98720.81
2023-04-05T06:53:08.499Z,98727.75
2023-04-05T06:55:35.810Z,98724.72
2023-04-05T06:58:03.096Z,98725.66
2023-04-05T07:00:30.770Z,98723.72
2023-04-05T07:02:58.177Z,98721.81
2023-04-05T07:05:25.675Z,98725.22
2023-04-05T07:07:53.154Z,98720.13
2023-04-05T07:10:20.859Z,98723.25
2023-04-05T07:12:48.238Z,98723.22
2023-04-05T07:15:15.661Z,98726.69
2023-04-05T07:17:43.017Z,98727.56
2023-04-05T07:20:11.043Z,98735.69
2023-04-05T07:22:38.344Z,98719.53
2023-04-05T07:25:08.390Z,98728.59
2023-04-05T07:27:35.936Z,98727.97
2023-04-05T07:30:03.387Z,98721.03
2023-04-05T07:32:30.815Z,98721.50
2023-04-05T07:34:58.235Z,98716.50
2023-04-05T07:37:27.296Z,98724.81
2023-04-05T07:39:54.686Z,98723.44
2023-04-05T07:42:22.136Z,98727.50
2023-04-05T07:44:49.617Z,98719.00
2023-04-05T07:47:17.090Z,98721.13
2023-04-05T07:49:44.480Z,98713.66
2023-04-05T07:52:11.829Z,98721.41
2023-04-05T07:54:39.934Z,98718.38
2023-04-05T07:57:07.442Z,98725.47
2023-04-05T07:59:35.327Z,98725.69
2023-04-05T08:02:12.381Z,98726.75
2023-04-05T08:04:43.165Z,98727.69
2023-04-05T08:07:11.340Z,98725.66
2023-04-05T08:09:38.649Z,98730.22
2023-04-05T08:12:06.586Z,98719.63
2023-04-05T08:14:33.934Z,98721.22
2023-04-05T08:17:01.317Z,98721.63
2023-04-05T08:19:28.814Z,98721.94
2023-04-05T08:21:56.519Z,98713.81
2023-04-05T08:24:28.994Z,98708.56
2023-04-05T08:26:56.398Z,98711.34
2023-04-05T08:29:23.794Z,98710.34
2023-04-05T08:31:51.172Z,98705.25
2023-04-05T08:34:18.488Z,98702.88
2023-04-05T08:36:47.125Z,98702.03
2023-04-05T08:39:16.033Z,98710.91
2023-04-05T08:42:15.845Z,98710.34
2023-04-05T08:44:46.438Z,98699.22
2023-04-05T08:47:18.245Z,98706.47
2023-04-05T08:49:46.127Z,98706.19
2023-04-05T08:52:13.585Z,98695.09
2023-04-05T08:54:41.022Z,98693.56
2023-04-05T08:57:08.978Z,98693.13
2023-04-05T08:59:42.503Z,98699.47
2023-04-05T09:02:17.691Z,98706.22
2023-04-05T09:04:47.005Z,98713.09
2023-04-05T09:07:14.721Z,98707.59
2023-04-05T09:09:47.548Z,98699.81
2023-04-05T09:12:15.921Z,98711.47
2023-04-05T09:14:43.877Z,98702.34
2023-04-05T09:17:11.567Z,98708.13
2023-04-05T09:19:39.273Z,98699.53
2023-04-05T09:22:08.111Z,98698.63
2023-04-05T09:24:44.560Z,98693.25
2023-04-05T09:27:18.275Z,98699.78
2023-04-05T09:29:50.366Z,98693.16
2023-04-05T09:32:19.362Z,98707.53
2023-04-05T09:34:47.470Z,98697.28
2023-04-05T09:37:27.235Z,98696.97
2023-04-05T09:40:04.526Z,98687.81
2023-04-05T09:42:44.806Z,98687.69
2023-04-05T09:45:12.722Z,98696.16
2023-04-05T09:47:58.821Z,98690.56
2023-04-05T09:50:26.210Z,98691.56
2023-04-05T09:53:08.105Z,98679.88
2023-04-05T09:55:35.729Z,98678.59
2023-04-05T09:58:04.034Z,98688.13
2023-04-05T10:00:32.456Z,98684.81
2023-04-05T10:03:00.104Z,98685.25
2023-04-05T10:05:28.717Z,98680.03
2023-04-05T10:07:56.610Z,98674.78
2023-04-05T10:10:24.615Z,98677.56
2023-04-05T10:12:52.190Z,98661.56
2023-04-05T10:15:19.591Z,98670.53
2023-04-05T10:17:55.445Z,98661.47
2023-04-05T10:20:24.663Z,98655.41
2023-04-05T10:23:22.296Z,98658.13
2023-04-05T10:25:53.351Z,98651.44
2023-04-05T10:28:37.487Z,98647.06
2023-04-05T10:31:36.237Z,98651.97
2023-04-05T10:34:08.087Z,98647.03
2023-04-05T10:36:58.950Z,98652.00
2023-04-05T10:39:39.751Z,98651.94
2023-04-05T10:42:07.612Z,98645.06
2023-04-05T10:44:37.470Z,98646.94
2023-04-05T10:47:06.990Z,98653.81
2023-04-05T10:49:37.689Z,98647.47
2023-04-05T10:52:05.462Z,98642.56
2023-04-05T10:54:37.440Z,98652.25
2023-04-05T10:57:09.347Z,98646.09
2023-04-05T10:59:43.229Z,98644.06
2023-04-05T11:02:10.968Z,98640.69
2023-04-05T11:04:41.411Z,98640.31
2023-04-05T11:07:17.717Z,98643.00
2023-04-05T11:10:02.624Z,98635.56
2023-04-05T11:12:49.973Z,98636.53
2023-04-05T11:15:30.672Z,98623.38
2023-04-05T11:18:12.507Z,98623.31
2023-04-05T11:20:57.798Z,98620.59
2023-04-05T11:23:25.690Z,98626.31
2023-04-05T11:26:04.988Z,98599.88
2023-04-05T11:28:39.347Z,98587.75
2023-04-05T11:31:26.916Z,98587.22
2023-04-05T11:34:10.537Z,98575.72
2023-04-05T11:36:45.726Z,98584.94
2023-04-05T11:39:19.143Z,98581.34
2023-04-05T11:42:12.209Z,98563.31
2023-04-05T11:44:48.859Z,98581.31
2023-04-05T11:47:21.745Z,98589.28
2023-04-05T11:49:52.521Z,98589.91
2023-04-05T11:52:21.773Z,98579.91
2023-04-05T11:54:49.972Z,98564.97
2023-04-05T11:57:22.995Z,98576.72
2023-04-05T11:59:52.188Z,98586.47
2023-04-05T12:02:19.698Z,98594.69
2023-04-05T12:04:56.018Z,98582.97
2023-04-05T12:07:28.902Z,98573.56
2023-04-05T12:10:15.929Z,98563.97
2023-04-05T12:12:45.022Z,98573.97
2023-04-05T12:15:20.373Z,98568.53
2023-04-05T12:17:50.261Z,98548.91
2023-04-05T12:20:26.076Z,98541.34
2023-04-05T12:22:56.527Z,98547.91
2023-04-05T12:25:25.020Z,98542.13
2023-04-05T12:27:53.184Z,98541.34
2023-04-05T12:30:22.682Z,98542.03
2023-04-05T12:32:57.431Z,98537.56
2023-04-05T12:35:33.056Z,98535.31
2023-04-05T12:38:05.854Z,98533.31
2023-04-05T12:40:35.577Z,98531.19
2023-04-05T12:43:07.740Z,98532.59
2023-04-05T12:45:42.008Z,98523.72
2023-04-05T12:48:13.112Z,98523.19
2023-04-05T12:50:45.827Z,98520.88
2023-04-05T12:53:20.592Z,98520.34
2023-04-05T12:55:54.835Z,98511.22
2023-04-05T12:58:32.059Z,98501.72
2023-04-05T13:00:59.521Z,98500.28
2023-04-05T13:03:27.711Z,98501.03
2023-04-05T13:05:55.530Z,98516.91
2023-04-05T13:08:22.968Z,98531.09
2023-04-05T13:10:50.645Z,98512.22
2023-04-05T13:13:21.102Z,98493.47
2023-04-05T13:15:50.681Z,98493.50
2023-04-05T13:18:19.500Z,98484.47
2023-04-05T13:20:47.285Z,98478.41
2023-04-05T13:23:14.839Z,98484.31
2023-04-05T13:25:45.271Z,98475.19
2023-04-05T13:28:12.827Z,98488.88
2023-04-05T13:30:40.223Z,98472.41
2023-04-05T13:33:07.229Z,98470.47
2023-04-05T13:35:34.665Z,98462.88
2023-04-05T13:38:04.301Z,98479.78
2023-04-05T13:40:32.538Z,98497.13
2023-04-05T13:43:03.480Z,98475.75
2023-04-05T13:45:31.943Z,98463.34
2023-04-05T13:47:59.358Z,98462.44
2023-04-05T13:50:27.178Z,98470.09
2023-04-05T13:52:54.501Z,98457.47
2023-04-05T13:55:21.904Z,98455.69
2023-04-05T13:57:51.106Z,98445.50
2023-04-05T14:00:18.947Z,98456.38
2023-04-05T14:02:47.045Z,98460.50
2023-04-05T14:05:15.546Z,98473.50
2023-04-05T14:07:42.966Z,98463.78
2023-04-05T14:10:11.608Z,98471.47
2023-04-05T14:12:42.600Z,98459.16
2023-04-05T14:15:13.696Z,98465.75
2023-04-05T14:17:41.460Z,98461.75
2023-04-05T14:20:09.141Z,98462.00
2023-04-05T14:22:36.542Z,98467.38
2023-04-05T14:25:04.468Z,98455.94
2023-04-05T14:27:31.824Z,98471.47
2023-04-05T14:29:59.255Z,98452.53
2023-04-05T14:32:26.724Z,98451.22
2023-04-05T14:34:54.327Z,98446.31
2023-04-05T14:37:21.711Z,98451.44
2023-04-05T14:39:49.058Z,98450.50
2023-04-05T14:42:16.406Z,98439.56
2023-04-05T14:44:43.792Z,98450.41
2023-04-05T14:47:10.815Z,98447.06
2023-04-05T14:49:38.164Z,98439.25
2023-04-05T14:52:05.679Z,98447.97
2023-04-05T14:54:33.101Z,98443.97
2023-04-05T14:57:00.575Z,98439.41
2023-04-05T14:59:28.160Z,98428.03
2023-04-05T15:01:55.522Z,98428.91
2023-04-05T15:04:22.676Z,98429.06
2023-04-05T15:06:50.352Z,98425.16
2023-04-05T15:09:17.871Z,98427.72
2023-04-05T15:11:48.132Z,98427.38
2023-04-05T15:14:28.941Z,98434.63
2023-04-05T15:17:00.386Z,98434.22
2023-04-05T15:19:30.809Z,98433.72
2023-04-05T15:22:00.634Z,98437.88
2023-04-05T15:24:29.508Z,98429.94
2023-04-05T15:27:02.620Z,98427.34
2023-04-05T15:29:33.947Z,98427.25
2023-04-05T15:32:08.873Z,98438.41
2023-04-05T15:34:39.041Z,98441.16
2023-04-05T15:37:07.453Z,98439.63
2023-04-05T15:39:36.709Z,98438.28
2023-04-05T15:42:05.828Z,98431.94
2023-04-05T15:44:37.958Z,98432.41
2023-04-05T15:47:07.810Z,98432.28
2023-04-05T15:49:36.309Z,98426.13
2023-04-05T15:52:06.974Z,98432.75
2023-04-05T15:54:35.740Z,98436.63
2023-04-05T15:57:12.370Z,98434.53
2023-04-05T15:59:42.915Z,98431.50
2023-04-05T16:02:12.837Z,98439.06
2023-04-05T16:04:41.305Z,98427.50
2023-04-05T16:07:10.126Z,98435.78
2023-04-05T16:09:38.852Z,98432.38
2023-04-05T16:12:09.025Z,98427.09
2023-04-05T16:14:37.494Z,98426.66
2023-04-05T16:17:05.994Z,98424.44
2023-04-05T16:19:35.080Z,98429.53
2023-04-05T16:22:06.983Z,98432.84
2023-04-05T16:24:40.038Z,98427.09
2023-04-05T16:27:14.989Z,98429.09
2023-04-05T16:29:55.132Z,98432.28
2023-04-05T16:32:26.399Z,98428.13
2023-04-05T16:35:11.504Z,98436.38
2023-04-05T16:37:40.985Z,98436.44
2023-04-05T16:40:10.802Z,98442.66
2023-04-05T16:42:39.424Z,98450.06
2023-04-05T16:45:11.664Z,98443.09
2023-04-05T16:47:40.402Z,98444.34
2023-04-05T16:50:09.710Z,98443.00
2023-04-05T16:52:37.679Z,98442.22
2023-04-05T16:55:05.725Z,98448.50
2023-04-05T16:57:33.829Z,98442.00
2023-04-05T17:00:04.111Z,98441.72
2023-04-05T17:02:32.481Z,98439.56
2023-04-05T17:05:00.479Z,98444.72
2023-04-05T17:07:34.484Z,98448.75
2023-04-05T17:10:07.376Z,98442.81
2023-04-05T17:12:42.157Z,98450.69
2023-04-05T17:15:16.517Z,98444.97
2023-04-05T17:17:44.915Z,98451.97
2023-04-05T17:20:13.114Z,98445.22
2023-04-05T17:22:41.745Z,98448.16
2023-04-05T17:25:10.475Z,98445.97
2023-04-05T17:27:38.682Z,98455.25
2023-04-05T17:30:07.611Z,98445.22
2023-04-05T17:32:35.952Z,98448.88
2023-04-05T17:35:04.319Z,98444.31
2023-04-05T17:37:32.290Z,98451.16
2023-04-05T17:40:00.647Z,98455.81
2023-04-05T17:42:28.761Z,98465.13
2023-04-05T17:44:57.086Z,98456.44
2023-04-05T17:47:26.309Z,98454.72
2023-04-05T17:49:54.372Z,98466.41
2023-04-05T17:52:22.916Z,98457.81
2023-04-05T17:54:53.024Z,98468.59
2023-04-05T17:57:21.268Z,98463.66
2023-04-05T17:59:49.644Z,98466.25
2023-04-05T18:02:18.212Z,98466.06
2023-04-05T18:04:47.879Z,98463.97
2023-04-05T18:07:16.485Z,98463.03
2023-04-05T18:09:45.078Z,98468.34
2023-04-05T18:12:15.047Z,98471.66
2023-04-05T18:14:43.746Z,98477.38
2023-04-05T18:17:18.542Z,98478.78
2023-04-05T18:19:49.437Z,98481.03
2023-04-05T18:22:18.270Z,98479.75
2023-04-05T18:24:46.862Z,98476.81
2023-04-05T18:27:15.680Z,98488.69
2023-04-05T18:29:46.466Z,98482.44
2023-04-05T18:32:15.093Z,98490.06
2023-04-05T18:34:43.684Z,98493.47
2023-04-05T18:37:14.086Z,98497.94
2023-04-05T18:39:43.553Z,98495.94
2023-04-05T18:42:12.206Z,98499.56
2023-04-05T18:44:41.490Z,98497.56
2023-04-05T18:47:10.085Z,98503.00
2023-04-05T18:49:38.474Z,98504.56
2023-04-05T18:52:06.984Z,98505.56
2023-04-05T18:54:35.372Z,98505.94
2023-04-05T18:57:04.581Z,98506.66
2023-04-05T18:59:32.949Z,98511.13
2023-04-05T19:02:04.052Z,98498.25
2023-04-05T19:04:32.611Z,98517.38
2023-04-05T19:07:01.782Z,98519.56
2023-04-05T19:09:30.361Z,98512.63
2023-04-05T19:12:01.861Z,98518.56
2023-04-05T19:14:31.309Z,98512.47
2023-04-05T19:17:00.024Z,98520.75
2023-04-05T19:19:28.885Z,98517.91
2023-04-05T19:22:00.087Z,98519.59
2023-04-05T19:24:29.101Z,98520.25
2023-04-05T19:26:57.818Z,98528.84
2023-04-05T19:29:26.560Z,98523.59
2023-04-05T19:31:58.634Z,98525.22
2023-04-05T19:34:33.235Z,98524.72
2023-04-05T19:37:01.302Z,98526.53
2023-04-05T19:39:30.205Z,98523.75
2023-04-05T19:41:58.694Z,98522.91
2023-04-05T19:44:57.782Z,98528.50
2023-04-05T19:47:26.645Z,98522.25
2023-04-05T19:50:01.091Z,98522.25
2023-04-05T19:52:48.765Z,98515.13
2023-04-05T19:55:32.898Z,98515.63
2023-04-05T19:58:07.228Z,98518.28
2023-04-05T20:00:48.665Z,98524.53
2023-04-05T20:03:35.235Z,98522.53
2023-04-05T20:06:14.823Z,98531.00
2023-04-05T20:08:45.588Z,98526.88
2023-04-05T20:11:19.156Z,98525.25
2023-04-05T20:13:58.676Z,98530.84
2023-04-05T20:16:35.985Z,98528.22
2023-04-05T20:19:11.217Z,98523.25
2023-04-05T20:21:39.696Z,98532.84
2023-04-05T20:24:10.160Z,98532.53
2023-04-05T20:26:41.461Z,98524.59
2023-04-05T20:29:10.327Z,98515.72
2023-04-05T20:31:40.086Z,98523.28
2023-04-05T20:34:15.861Z,98522.78
2023-04-05T20:36:55.274Z,98520.66
2023-04-05T20:39:26.231Z,98521.63
2023-04-05T20:41:56.029Z,98518.66
2023-04-05T20:44:25.638Z,98518.66
2023-04-05T20:47:03.967Z,98517.50
2023-04-05T20:49:36.344Z,98515.84
2023-04-05T20:52:12.573Z,98517.69
2023-04-05T20:54:40.854Z,98521.44
2023-04-05T20:57:11.988Z,98518.66
2023-04-05T20:59:42.466Z,98520.94
2023-04-05T21:02:10.659Z,98525.19
2023-04-05T21:04:38.894Z,98522.59
2023-04-05T21:07:09.145Z,98527.19
2023-04-05T21:09:37.187Z,98528.19
2023-04-05T21:12:06.120Z,98527.19
2023-04-05T21:14:34.154Z,98529.81
2023-04-05T21:17:04.366Z,98528.47
2023-04-05T21:19:34.806Z,98525.53
2023-04-05T21:22:03.052Z,98531.16
2023-04-05T21:24:31.477Z,98534.38
2023-04-05T21:26:59.755Z,98525.16
2023-04-05T21:29:27.992Z,98528.09
2023-04-05T21:31:56.261Z,98524.69
2023-04-05T21:34:24.754Z,98515.78
2023-04-05T21:36:53.067Z,98529.44
2023-04-05T21:39:23.255Z,98527.81
2023-04-05T21:41:51.468Z,98524.09
2023-04-05T21:44:21.952Z,98527.81
2023-04-05T21:46:50.187Z,98525.16
2023-04-05T21:49:18.720Z,98526.25
2023-04-05T21:51:46.602Z,98519.63
2023-04-05T21:54:14.788Z,98518.81
2023-04-05T21:56:51.965Z,98523.47
2023-04-05T21:59:20.344Z,98524.72
2023-04-05T22:01:48.959Z,98525.72
2023-04-05T22:04:16.782Z,98520.59
2023-04-05T22:06:44.518Z,98527.31
2023-04-05T22:09:12.284Z,98525.66
2023-04-05T22:11:40.063Z,98527.63
2023-04-05T22:14:08.519Z,98527.94
2023-04-05T22:16:36.716Z,98523.94
2023-04-05T22:19:04.943Z,98528.88
2023-04-05T22:21:33.887Z,98525.44
2023-04-05T22:24:04.324Z,98531.06
2023-04-05T22:26:32.644Z,98527.06
2023-04-05T22:29:01.318Z,98534.97
2023-04-05T22:31:29.470Z,98536.38
2023-04-05T22:33:57.710Z,98525.19
2023-04-05T22:36:26.194Z,98530.63
2023-04-05T22:38:54.788Z,98534.13
2023-04-05T22:41:25.112Z,98535.41
2023-04-05T22:43:52.963Z,98542.31
2023-04-05T22:46:20.729Z,98535.34
2023-04-05T22:48:50.055Z,98534.13
2023-04-05T22:51:17.658Z,98532.59
2023-04-05T22:53:46.221Z,98534.88
2023-04-05T22:56:14.709Z,98528.09
2023-04-05T22:58:42.681Z,98535.25
2023-04-05T23:01:10.776Z,98538.94
2023-04-05T23:03:38.418Z,98531.84
2023-04-05T23:06:06.522Z,98526.75
2023-04-05T23:08:37.289Z,98532.63
2023-04-05T23:11:05.306Z,98531.00
2023-04-05T23:13:32.908Z,98531.28
2023-04-05T23:16:00.659Z,98538.31
2023-04-05T23:18:28.309Z,98528.28
2023-04-05T23:20:56.192Z,98530.47
2023-04-05T23:23:24.018Z,98530.16
2023-04-05T23:25:51.771Z,98529.97
2023-04-05T23:28:19.447Z,98527.47
2023-04-05T23:30:49.656Z,98526.66
2023-04-05T23:33:17.155Z,98524.38
2023-04-05T23:35:44.686Z,98526.38
2023-04-05T23:38:12.212Z,98532.84
2023-04-05T23:40:39.676Z,98525.09
2023-04-05T23:43:07.263Z,98529.19
2023-04-05T23:45:34.930Z,98528.31
2023-04-05T23:48:02.556Z,98523.59
2023-04-05T23:50:30.139Z,98526.53
2023-04-05T23:52:58.353Z,98523.53
2023-04-05T23:55:26.442Z,98522.84
2023-04-05T23:57:56.532Z,98523.84
